Time;durP1;ratioP1;P1;durP2;ratioP2;P2;SDS_P1;SDS_P2;PMS_P1;PMS_P2;Temp;Humidity;BMP_temperature;BMP_pressure;BME280_temperature;BME280_humidity;BME280_pressure;Samples;Min_cycle;Max_cycle;Signal;HPM_P1;HPM_P2
2021/08/05 00:01:04;;;;;;;8.13;6.23;;;;;;;30.33;47.64;100575.34;128002;1087;61766;-86
2021/08/05 00:03:30;;;;;;;8.73;6.10;;;;;;;30.33;47.93;100574.48;128050;1087;64163;-85
2021/08/05 00:05:58;;;;;;;7.27;5.97;;;;;;;30.33;47.51;100571.76;128023;1087;64879;-87
2021/08/05 00:08:24;;;;;;;7.60;6.10;;;;;;;30.33;48.06;100563.59;128006;1087;64320;-86
2021/08/05 00:10:51;;;;;;;7.97;5.67;;;;;;;30.32;47.63;100562.75;128044;1087;64141;-85
2021/08/05 00:13:19;;;;;;;8.80;6.20;;;;;;;30.33;47.95;100564.45;127976;1085;64242;-86
2021/08/05 00:15:45;;;;;;;7.80;6.03;;;;;;;30.32;48.09;100562.75;127993;1086;64622;-86
2021/08/05 00:18:12;;;;;;;7.53;5.87;;;;;;;30.32;47.98;100562.75;127988;1085;64109;-87
2021/08/05 00:20:38;;;;;;;7.83;6.17;;;;;;;30.33;47.94;100569.03;128045;1087;64102;-87
2021/08/05 00:23:04;;;;;;;10.73;6.20;;;;;;;30.33;47.82;100569.03;128018;1087;64243;-86
2021/08/05 00:25:31;;;;;;;8.87;6.27;;;;;;;30.32;47.68;100575.53;128085;1084;64137;-87
2021/08/05 00:27:57;;;;;;;8.33;6.20;;;;;;;30.31;47.76;100571.94;128476;1084;64237;-86
2021/08/05 00:30:24;;;;;;;8.37;5.97;;;;;;;30.32;47.93;100575.53;128486;1084;64209;-86
2021/08/05 00:32:51;;;;;;;8.47;5.83;;;;;;;30.31;48.06;100577.38;128508;1083;62245;-86
2021/08/05 00:35:26;;;;;;;8.80;6.17;;;;;;;30.32;47.81;100575.53;128518;1084;64737;-86
2021/08/05 00:37:53;;;;;;;8.17;5.80;;;;;;;30.31;47.69;100577.38;128486;1083;64136;-87
2021/08/05 00:40:42;;;;;;;8.53;6.10;;;;;;;30.31;47.69;100577.38;128517;1082;64147;-87
2021/08/05 00:43:09;;;;;;;7.57;5.37;;;;;;;30.30;48.11;100572.99;128341;1087;64207;-86
2021/08/05 00:45:36;;;;;;;8.17;6.20;;;;;;;30.31;48.19;100571.11;128002;1086;64925;-86
2021/08/05 00:48:02;;;;;;;7.43;6.10;;;;;;;30.31;47.88;100573.83;127946;1086;64269;-86
2021/08/05 00:50:30;;;;;;;8.00;6.03;;;;;;;30.30;47.67;100574.84;128044;1085;64339;-86
2021/08/05 00:52:59;;;;;;;8.20;6.00;;;;;;;30.31;47.84;100573.83;127994;1087;64314;-87
2021/08/05 00:55:26;;;;;;;8.17;5.80;;;;;;;30.30;47.84;100566.67;128006;1086;64380;-86
2021/08/05 00:57:53;;;;;;;7.43;5.70;;;;;;;30.30;48.21;100577.56;128013;1087;64281;-86
2021/08/05 01:00:19;;;;;;;10.07;6.53;;;;;;;30.30;47.64;100572.13;128392;1085;64020;-86
2021/08/05 01:02:59;;;;;;;7.67;5.97;;;;;;;30.30;47.70;100574.84;127950;1087;64144;-86
2021/08/05 01:05:27;;;;;;;8.57;5.93;;;;;;;30.29;47.74;100565.84;128008;1085;64135;-86
2021/08/05 01:07:59;;;;;;;8.60;5.73;;;;;;;30.30;47.87;100563.95;127986;1087;64141;-87
2021/08/05 01:10:43;;;;;;;7.60;5.87;;;;;;;30.29;47.84;100560.39;128364;1087;64278;-86
2021/08/05 01:13:35;;;;;;;8.23;6.10;;;;;;;30.30;47.98;100555.78;128025;1086;64280;-87
2021/08/05 01:16:02;;;;;;;8.83;6.27;;;;;;;30.29;48.04;100554.08;127991;1087;64142;-87
2021/08/05 01:18:32;;;;;;;6.90;5.75;;;;;;;30.28;47.97;100561.41;127971;1087;64150;-86
2021/08/05 01:21:03;;;;;;;8.73;5.93;;;;;;;30.29;47.93;100568.56;128299;1084;64287;-87
2021/08/05 01:23:37;;;;;;;7.73;5.60;;;;;;;30.29;47.68;100559.52;128901;1084;63936;-86
2021/08/05 01:26:28;;;;;;;6.80;5.93;;;;;;;30.28;48.18;100553.24;128908;1084;64202;-86
2021/08/05 01:28:58;;;;;;;7.40;5.77;;;;;;;30.28;47.79;100549.69;128531;1084;64133;-87
2021/08/05 01:31:25;;;;;;;8.23;6.00;;;;;;;30.29;47.80;100554.08;128547;1084;64472;-87
2021/08/05 01:33:51;;;;;;;7.10;5.60;;;;;;;30.28;48.24;100550.52;128500;1084;64172;-86
2021/08/05 01:36:23;;;;;;;8.53;5.77;;;;;;;30.28;47.84;100539.63;128891;1084;63958;-86
2021/08/05 01:38:50;;;;;;;8.60;6.43;;;;;;;30.29;48.15;100540.47;128510;1084;64115;-87
2021/08/05 01:41:17;;;;;;;7.20;5.95;;;;;;;30.28;48.15;100542.36;128522;1084;64176;-87
2021/08/05 01:43:45;;;;;;;8.60;5.90;;;;;;;30.28;48.25;100536.91;128481;1084;64099;-86
2021/08/05 01:46:11;;;;;;;8.88;5.98;;;;;;;30.28;48.27;100541.52;128508;1082;64307;-86
2021/08/05 01:48:37;;;;;;;7.77;5.93;;;;;;;30.26;47.79;100542.53;128911;1084;64134;-86
2021/08/05 01:51:04;;;;;;;8.47;5.80;;;;;;;30.27;47.90;100551.54;128519;1084;64144;-86
2021/08/05 01:53:30;;;;;;;6.73;5.47;;;;;;;30.26;48.26;100542.53;128485;1083;64172;-86
2021/08/05 01:55:57;;;;;;;8.30;5.73;;;;;;;30.27;47.84;100546.09;128471;1084;64345;-86
2021/08/05 01:58:23;;;;;;;7.67;5.87;;;;;;;30.26;48.14;100545.26;128529;1084;64316;-86
2021/08/05 02:00:50;;;;;;;7.17;5.63;;;;;;;30.26;47.71;100536.22;128521;1083;64150;-87
2021/08/05 02:03:16;;;;;;;8.27;6.17;;;;;;;30.26;48.09;100542.53;128475;1084;64205;-86
2021/08/05 02:06:19;;;;;;;7.00;5.73;;;;;;;30.26;48.28;100537.09;128499;1084;64176;-86
2021/08/05 02:08:59;;;;;;;7.33;5.67;;;;;;;30.27;48.28;100537.92;128593;1084;64432;-85
2021/08/05 02:11:27;;;;;;;6.87;5.47;;;;;;;30.25;47.89;100532.66;129049;1084;62843;-85
2021/08/05 02:13:53;;;;;;;7.20;5.73;;;;;;;30.26;47.85;100526.20;129155;1084;62855;-84
2021/08/05 02:16:22;;;;;;;7.00;5.90;;;;;;;30.27;47.94;100537.92;128914;1084;64205;-86
2021/08/05 02:18:49;;;;;;;7.00;5.33;;;;;;;30.28;47.96;100530.63;128535;1084;63987;-86
2021/08/05 02:21:26;;;;;;;7.50;5.60;;;;;;;30.28;48.35;100525.18;128535;1084;64117;-86
2021/08/05 02:23:57;;;;;;;7.63;5.77;;;;;;;30.26;47.90;100526.20;128910;1084;64092;-86
2021/08/05 02:26:23;;;;;;;7.73;6.00;;;;;;;30.27;48.14;100524.31;128485;1084;64090;-87
2021/08/05 02:28:49;;;;;;;6.87;5.40;;;;;;;30.27;47.81;100527.03;128523;1084;64127;-86
2021/08/05 02:31:18;;;;;;;7.00;5.85;;;;;;;30.26;48.34;100531.64;128489;1084;64281;-86
2021/08/05 02:33:44;;;;;;;;;;;;;;;30.26;48.04;100542.53;128462;1084;63901;-86
2021/08/05 02:36:10;;;;;;;6.67;5.77;;;;;;;30.25;48.40;100559.05;128893;1082;64188;-86
2021/08/05 02:38:36;;;;;;;7.13;5.53;;;;;;;30.25;48.04;100549.00;128499;1084;64131;-87
2021/08/05 02:41:05;;;;;;;8.20;5.63;;;;;;;30.25;48.41;100553.61;128511;1082;65026;-88
2021/08/05 02:43:32;;;;;;;7.53;6.03;;;;;;;30.24;47.96;100544.57;128950;1084;63929;-86
2021/08/05 02:45:59;;;;;;;8.23;5.80;;;;;;;30.23;48.30;100553.79;128507;1084;63269;-86
2021/08/05 02:48:26;;;;;;;6.30;5.30;;;;;;;30.24;47.94;100555.46;128465;1084;63951;-87
2021/08/05 02:50:56;;;;;;;6.87;5.60;;;;;;;30.23;47.91;100559.23;128509;1084;64218;-86
2021/08/05 02:53:23;;;;;;;8.47;6.03;;;;;;;30.23;48.27;100559.23;128499;1082;64147;-86
2021/08/05 02:55:49;;;;;;;7.50;5.65;;;;;;;30.23;47.94;100553.79;128515;1082;64093;-87
2021/08/05 02:58:42;;;;;;;7.37;5.50;;;;;;;30.24;47.95;100551.91;128470;1084;64131;-87
2021/08/05 03:01:09;;;;;;;7.40;5.80;;;;;;;30.22;48.45;100557.53;128380;1086;64144;-87
2021/08/05 03:03:35;;;;;;;7.50;5.60;;;;;;;30.22;48.49;100562.98;128012;1087;64221;-87
2021/08/05 03:06:01;;;;;;;7.20;5.60;;;;;;;30.22;48.04;100568.42;127894;1087;64163;-86
2021/08/05 03:08:28;;;;;;;8.20;5.60;;;;;;;30.23;48.19;100561.09;127992;1085;64099;-86
2021/08/05 03:10:54;;;;;;;7.97;5.80;;;;;;;30.23;48.15;100556.52;127942;1087;64168;-86
2021/08/05 03:13:20;;;;;;;7.30;5.50;;;;;;;30.23;48.11;100555.64;127999;1087;64272;-86
2021/08/05 03:15:46;;;;;;;7.13;5.57;;;;;;;30.22;48.08;100557.53;127939;1087;64211;-86
2021/08/05 03:18:18;;;;;;;6.93;5.47;;;;;;;30.23;48.30;100555.64;127967;1087;64095;-86
2021/08/05 03:20:44;;;;;;;7.83;5.30;;;;;;;30.22;48.10;100548.50;128015;1087;64440;-86
2021/08/05 03:23:11;;;;;;;8.43;5.70;;;;;;;30.22;48.47;100541.20;128385;1086;62922;-86
2021/08/05 03:25:37;;;;;;;7.47;5.73;;;;;;;30.22;48.30;100545.77;127982;1087;64103;-87
2021/08/05 03:28:06;;;;;;;8.23;5.77;;;;;;;30.22;48.45;100543.92;127931;1087;64187;-87
2021/08/05 03:30:32;;;;;;;7.10;5.37;;;;;;;30.22;48.05;100537.61;128048;1087;63955;-87
2021/08/05 03:33:02;;;;;;;7.07;5.17;;;;;;;30.23;48.47;100536.59;128371;1087;64266;-86
2021/08/05 03:35:37;;;;;;;8.03;5.78;;;;;;;30.21;48.48;100538.66;127947;1085;64284;-86
2021/08/05 03:38:04;;;;;;;7.23;5.40;;;;;;;30.21;48.17;100534.05;128096;1084;64276;-85
2021/08/05 03:40:30;;;;;;;7.63;5.53;;;;;;;30.22;48.10;100540.33;128529;1084;64929;-86
2021/08/05 03:42:56;;;;;;;7.60;5.13;;;;;;;30.21;48.51;100544.94;128473;1084;64275;-86
2021/08/05 03:45:22;;;;;;;6.60;5.40;;;;;;;30.22;48.22;100541.20;128484;1084;64150;-85
2021/08/05 03:47:51;;;;;;;6.73;5.30;;;;;;;30.21;48.56;100539.49;128496;1082;64113;-86
2021/08/05 03:50:18;;;;;;;7.17;5.60;;;;;;;30.21;48.18;100539.49;128485;1084;64131;-87
2021/08/05 03:52:44;;;;;;;7.00;5.40;;;;;;;30.21;48.37;100536.77;128513;1084;64248;-86
2021/08/05 03:55:13;;;;;;;7.10;5.50;;;;;;;30.21;48.31;100536.77;128504;1084;64125;-87
2021/08/05 03:57:43;;;;;;;8.13;5.87;;;;;;;30.22;48.67;100545.77;128905;1084;64287;-86
2021/08/05 04:00:13;;;;;;;5.70;5.00;;;;;;;30.22;48.22;100541.20;128537;1084;64099;-87
2021/08/05 04:02:41;;;;;;;7.00;5.67;;;;;;;30.22;48.31;100543.92;128920;1084;64103;-86
2021/08/05 04:05:11;;;;;;;7.95;5.65;;;;;;;30.22;48.18;100534.88;128488;1083;64172;-86
2021/08/05 04:07:37;;;;;;;7.23;5.17;;;;;;;30.22;48.48;100534.88;128486;1084;64176;-86
2021/08/05 04:10:06;;;;;;;7.27;5.53;;;;;;;30.21;48.20;100528.59;128504;1084;64128;-86
2021/08/05 04:12:36;;;;;;;5.97;5.13;;;;;;;30.22;48.56;100529.44;128465;1083;64128;-86
2021/08/05 04:15:02;;;;;;;7.13;5.53;;;;;;;30.22;48.59;100522.14;128490;1084;64327;-88
2021/08/05 04:17:29;;;;;;;6.87;5.00;;;;;;;30.23;48.39;100528.42;128476;1084;64227;-85
2021/08/05 04:19:55;;;;;;;7.23;5.50;;;;;;;30.23;48.54;100528.42;128902;1084;64203;-87
2021/08/05 04:22:22;;;;;;;7.40;5.43;;;;;;;30.22;48.63;100518.55;128503;1084;64086;-86
2021/08/05 04:24:52;;;;;;;6.60;5.43;;;;;;;30.22;48.84;100533.03;128468;1084;62543;-87
2021/08/05 04:27:19;;;;;;;6.20;5.30;;;;;;;30.23;48.82;100536.59;128499;1084;64121;-86
2021/08/05 04:29:46;;;;;;;5.97;5.20;;;;;;;30.22;48.87;100533.03;128502;1084;63961;-86
2021/08/05 04:32:12;;;;;;;6.67;5.57;;;;;;;30.23;48.79;100539.31;128530;1084;64643;-86
2021/08/05 04:34:41;;;;;;;5.97;5.37;;;;;;;30.23;48.32;100536.59;128501;1084;64204;-86
2021/08/05 04:37:07;;;;;;;6.43;5.30;;;;;;;30.23;48.32;100539.31;128476;1084;64230;-86
2021/08/05 04:39:33;;;;;;;7.40;5.77;;;;;;;30.23;48.52;100533.86;128509;1082;64147;-87
2021/08/05 04:41:59;;;;;;;7.20;6.00;;;;;;;30.23;48.76;100533.86;128505;1083;64158;-87
2021/08/05 04:44:26;;;;;;;7.47;6.20;;;;;;;30.23;48.35;100533.86;128464;1083;64193;-86
2021/08/05 04:46:54;;;;;;;8.30;6.30;;;;;;;30.23;48.30;100520.25;128513;1084;64227;-87
2021/08/05 04:49:20;;;;;;;7.68;6.50;;;;;;;30.21;48.55;100535.94;128478;1084;64214;-86
2021/08/05 04:51:47;;;;;;;8.00;6.45;;;;;;;30.21;48.51;100538.66;128546;1083;64448;-86
2021/08/05 04:54:15;;;;;;;8.90;6.67;;;;;;;30.20;48.87;100537.78;128512;1084;64208;-85
2021/08/05 04:56:41;;;;;;;8.03;6.77;;;;;;;30.19;48.56;100527.91;128485;1083;64204;-86
2021/08/05 04:59:07;;;;;;;8.63;6.87;;;;;;;30.17;48.13;100535.43;128492;1084;64147;-86
2021/08/05 05:01:43;;;;;;;9.33;6.80;;;;;;;30.17;48.35;100529.15;128524;1082;64183;-86
2021/08/05 05:04:11;;;;;;;8.77;6.93;;;;;;;30.17;48.13;100534.59;128453;1083;64243;-86
2021/08/05 05:06:38;;;;;;;8.55;6.85;;;;;;;30.16;48.17;100533.72;128501;1082;64282;-86
2021/08/05 05:09:10;;;;;;;7.83;6.77;;;;;;;30.16;48.59;100535.61;128519;1082;64150;-86
2021/08/05 05:11:36;;;;;;;9.03;6.87;;;;;;;30.15;48.48;100534.73;128909;1084;64227;-86
2021/08/05 05:14:05;;;;;;;9.37;7.37;;;;;;;30.15;48.64;100531.19;128450;1084;64196;-85
2021/08/05 05:16:31;;;;;;;21.00;7.67;;;;;;;30.13;47.99;100531.36;128513;1083;64208;-86
2021/08/05 05:18:58;;;;;;;15.10;7.33;;;;;;;30.13;48.30;100535.94;128505;1082;64238;-86
2021/08/05 05:21:24;;;;;;;20.30;7.33;;;;;;;30.13;48.06;100525.05;128516;1084;64195;-86
2021/08/05 05:23:51;;;;;;;15.83;7.50;;;;;;;30.12;48.09;100528.82;128468;1084;64153;-85
2021/08/05 05:26:17;;;;;;;17.83;7.17;;;;;;;30.12;48.05;100526.09;128469;1082;64778;-87
2021/08/05 05:28:44;;;;;;;13.43;7.23;;;;;;;30.12;47.97;100523.38;128500;1084;64227;-86
2021/08/05 05:31:13;;;;;;;12.73;6.63;;;;;;;30.09;48.46;100522.69;128493;1084;64117;-87
2021/08/05 05:33:39;;;;;;;15.30;6.93;;;;;;;30.09;48.45;100519.13;128896;1084;64288;-86
2021/08/05 05:36:15;;;;;;;12.47;7.20;;;;;;;30.09;48.01;100517.25;128522;1084;64246;-86
2021/08/05 05:38:42;;;;;;;13.53;7.20;;;;;;;30.09;48.51;100519.13;128921;1083;64439;-86
2021/08/05 05:41:08;;;;;;;12.53;7.53;;;;;;;30.09;48.15;100513.69;128475;1084;64143;-86
2021/08/05 05:43:34;;;;;;;11.20;7.37;;;;;;;30.09;48.00;100519.97;128915;1084;64285;-86
2021/08/05 05:46:00;;;;;;;11.70;7.37;;;;;;;30.09;48.38;100517.25;128896;1084;64162;-87
2021/08/05 05:48:26;;;;;;;12.93;7.83;;;;;;;30.08;48.08;100511.98;128500;1082;64134;-86
2021/08/05 05:50:56;;;;;;;11.67;8.30;;;;;;;30.10;48.17;100515.39;128896;1084;64144;-87
2021/08/05 05:53:23;;;;;;;11.13;7.70;;;;;;;30.09;48.21;100516.41;128496;1084;64095;-86
2021/08/05 05:55:52;;;;;;;10.17;7.10;;;;;;;30.09;48.13;100513.69;128545;1084;64155;-87
2021/08/05 05:58:19;;;;;;;12.93;7.50;;;;;;;30.08;48.22;100510.09;128563;1082;64112;-86
2021/08/05 06:00:45;;;;;;;10.40;7.00;;;;;;;30.08;47.93;100504.66;128476;1084;64131;-86
2021/08/05 06:03:20;;;;;;;11.80;7.37;;;;;;;30.08;47.98;100510.09;128454;1082;64204;-87
2021/08/05 06:05:47;;;;;;;11.67;7.10;;;;;;;30.08;47.84;100510.09;128478;1084;64150;-86
2021/08/05 06:08:13;;;;;;;11.00;7.70;;;;;;;30.08;48.32;100504.66;128490;1084;64095;-87
2021/08/05 06:10:41;;;;;;;12.13;8.57;;;;;;;30.08;47.88;100507.38;128484;1084;64151;-87
2021/08/05 06:13:10;;;;;;;10.20;8.00;;;;;;;30.09;48.32;100506.36;128485;1083;62184;-85
2021/08/05 06:15:36;;;;;;;10.50;7.30;;;;;;;30.08;48.42;100501.94;128485;1084;64070;-85
2021/08/05 06:18:04;;;;;;;9.55;7.83;;;;;;;30.09;47.87;100502.80;128925;1084;64181;-85
2021/08/05 06:20:31;;;;;;;10.53;8.00;;;;;;;30.09;47.91;100495.47;128952;1084;64137;-85
2021/08/05 06:22:59;;;;;;;10.78;7.63;;;;;;;30.09;48.06;100490.03;128493;1082;64166;-86
2021/08/05 06:25:25;;;;;;;11.27;7.77;;;;;;;30.10;47.96;100496.34;128546;1084;64107;-87
2021/08/05 06:27:52;;;;;;;14.17;7.83;;;;;;;30.10;48.38;100488.17;128514;1083;64176;-86
2021/08/05 06:30:18;;;;;;;9.23;7.30;;;;;;;30.13;47.92;100489.67;128498;1082;64098;-86
2021/08/05 06:32:44;;;;;;;10.93;8.10;;;;;;;30.11;48.10;100483.56;128452;1084;64179;-87
2021/08/05 06:35:10;;;;;;;10.37;7.33;;;;;;;30.13;48.47;100484.22;128499;1084;64262;-86
2021/08/05 06:37:38;;;;;;;10.97;7.90;;;;;;;30.13;48.16;100467.89;128893;1083;64128;-86
2021/08/05 06:40:05;;;;;;;9.60;7.67;;;;;;;30.14;48.16;100467.73;128502;1083;64247;-87
2021/08/05 06:42:32;;;;;;;10.27;7.97;;;;;;;30.16;48.25;100464.83;128886;1084;64154;-87
2021/08/05 06:44:58;;;;;;;11.75;7.50;;;;;;;30.16;47.76;100462.95;128537;1084;64131;-86
2021/08/05 06:47:31;;;;;;;11.33;7.57;;;;;;;30.17;47.97;100448.31;128918;1084;64134;-87
2021/08/05 06:49:58;;;;;;;10.53;8.03;;;;;;;30.18;47.77;100457.31;128462;1084;64139;-86
2021/08/05 06:52:25;;;;;;;12.90;7.80;;;;;;;30.19;48.28;100448.97;128477;1084;64133;-86
2021/08/05 06:54:51;;;;;;;8.83;7.47;;;;;;;30.20;48.09;100436.22;128524;1082;64140;-86
2021/08/05 06:57:18;;;;;;;13.33;8.17;;;;;;;30.21;47.77;100435.20;128894;1084;64177;-86
2021/08/05 06:59:44;;;;;;;11.30;7.87;;;;;;;30.22;47.97;100434.16;128490;1084;64093;-87
2021/08/05 07:02:10;;;;;;;9.23;7.70;;;;;;;30.22;48.19;100429.58;128880;1082;64378;-87
2021/08/05 07:04:45;;;;;;;11.83;8.07;;;;;;;30.24;47.71;100429.39;128503;1084;64323;-86
2021/08/05 07:07:11;;;;;;;13.17;8.43;;;;;;;30.24;47.75;100429.39;128939;1084;64141;-87
2021/08/05 07:09:42;;;;;;;13.00;8.07;;;;;;;30.25;48.00;100429.20;128491;1084;64143;-86
2021/08/05 07:12:08;;;;;;;12.90;8.60;;;;;;;30.25;47.64;100429.20;128497;1084;64130;-86
2021/08/05 07:14:34;;;;;;;12.73;8.73;;;;;;;30.27;48.10;100426.30;128486;1084;64432;-86
2021/08/05 07:17:01;;;;;;;12.07;8.40;;;;;;;30.26;47.85;100419.16;128506;1083;64173;-86
2021/08/05 07:19:28;;;;;;;10.63;8.33;;;;;;;30.28;47.67;100421.72;128870;1084;64210;-85
2021/08/05 07:21:55;;;;;;;12.40;8.87;;;;;;;30.28;48.09;100413.55;128453;1084;64282;-85
2021/08/05 07:24:21;;;;;;;12.60;9.03;;;;;;;30.29;48.08;100413.38;128441;1084;64132;-87
2021/08/05 07:26:47;;;;;;;10.57;8.77;;;;;;;30.29;47.65;100407.05;128483;1083;64584;-85
2021/08/05 07:29:13;;;;;;;12.20;8.13;;;;;;;30.30;48.17;100401.46;128498;1084;64132;-85
2021/08/05 07:31:40;;;;;;;12.70;8.23;;;;;;;30.30;47.60;100392.42;128483;1084;64147;-85
2021/08/05 07:34:06;;;;;;;11.07;9.00;;;;;;;30.31;47.77;100391.41;128487;1084;64329;-86
2021/08/05 07:36:32;;;;;;;10.57;9.20;;;;;;;30.32;47.61;100385.77;128441;1082;64131;-85
2021/08/05 07:38:59;;;;;;;11.83;9.10;;;;;;;30.32;47.63;100384.94;128451;1084;64214;-86
2021/08/05 07:41:25;;;;;;;10.60;9.53;;;;;;;30.33;47.67;100384.75;128460;1084;64671;-86
2021/08/05 07:43:52;;;;;;;10.67;8.90;;;;;;;30.33;48.03;100381.16;128478;1084;64278;-86
2021/08/05 07:46:18;;;;;;;12.43;9.33;;;;;;;30.33;47.61;100370.27;128466;1084;64156;-87
2021/08/05 07:48:44;;;;;;;12.03;8.85;;;;;;;30.33;47.59;100376.58;128451;1084;64201;-87
2021/08/05 07:51:11;;;;;;;13.10;8.60;;;;;;;30.34;47.53;100374.70;128418;1084;64224;-86
2021/08/05 07:53:37;;;;;;;10.97;9.00;;;;;;;30.34;47.62;100369.25;128476;1084;64096;-87
2021/08/05 07:56:04;;;;;;;12.07;8.80;;;;;;;30.35;48.00;100368.23;128476;1084;64131;-86
2021/08/05 07:58:31;;;;;;;11.27;9.20;;;;;;;30.35;47.57;100366.34;128519;1084;64677;-86
2021/08/05 08:00:57;;;;;;;11.20;8.90;;;;;;;30.35;47.52;100360.89;128892;1082;64205;-86
2021/08/05 08:03:23;;;;;;;10.67;9.00;;;;;;;30.36;47.66;100359.88;128481;1084;64253;-87
2021/08/05 08:05:50;;;;;;;13.23;9.43;;;;;;;30.36;47.99;100348.14;128481;1082;64149;-86
2021/08/05 08:08:16;;;;;;;11.90;9.50;;;;;;;30.37;47.56;100363.46;128454;1084;64122;-86
2021/08/05 08:10:43;;;;;;;11.53;9.37;;;;;;;30.37;48.06;100363.46;128477;1084;64211;-87
2021/08/05 08:13:09;;;;;;;13.13;9.67;;;;;;;30.37;48.00;100366.19;128430;1084;64594;-86
2021/08/05 08:15:36;;;;;;;11.97;9.00;;;;;;;30.38;47.70;100362.41;128474;1084;64179;-86
2021/08/05 08:18:02;;;;;;;10.03;8.93;;;;;;;30.37;48.04;100367.02;128499;1084;64243;-87
2021/08/05 08:20:28;;;;;;;10.07;8.83;;;;;;;30.39;47.48;100369.55;128478;1084;64307;-87
2021/08/05 08:22:55;;;;;;;11.37;9.37;;;;;;;30.39;47.55;100369.55;128461;1084;65070;-86
2021/08/05 08:25:21;;;;;;;10.43;9.33;;;;;;;30.39;47.84;100358.66;128487;1084;64147;-87
2021/08/05 08:27:48;;;;;;;11.17;9.07;;;;;;;30.39;47.93;100353.22;128474;1084;64138;-86
2021/08/05 08:30:16;;;;;;;10.50;9.27;;;;;;;30.39;47.79;100353.22;128458;1084;64157;-86
2021/08/05 08:32:43;;;;;;;11.57;9.33;;;;;;;30.40;47.53;100352.20;128429;1082;64198;-85
2021/08/05 08:35:10;;;;;;;11.43;9.15;;;;;;;30.40;47.37;100355.75;128464;1082;64173;-86
2021/08/05 08:37:36;;;;;;;12.17;9.23;;;;;;;30.40;47.95;100342.14;128461;1082;64336;-86
2021/08/05 08:40:04;;;;;;;13.30;9.80;;;;;;;30.40;47.48;100342.14;128476;1084;64136;-86
2021/08/05 08:42:32;;;;;;;10.57;9.50;;;;;;;30.41;47.72;100343.00;128478;1084;64136;-87
2021/08/05 08:44:59;;;;;;;9.65;8.65;;;;;;;30.42;47.25;100331.06;128828;1084;64102;-86
2021/08/05 08:47:25;;;;;;;14.00;9.30;;;;;;;30.41;47.35;100324.78;128508;1084;64147;-86
2021/08/05 08:49:51;;;;;;;10.63;9.53;;;;;;;30.40;47.46;100324.97;128875;1083;64221;-86
2021/08/05 08:52:24;;;;;;;13.07;10.07;;;;;;;30.37;47.50;100320.73;128450;1083;64173;-87
2021/08/05 08:54:51;;;;;;;14.50;9.73;;;;;;;30.35;47.03;100317.33;128889;1083;64128;-86
2021/08/05 08:57:20;;;;;;;14.17;10.13;;;;;;;30.36;47.32;100327.20;128499;1084;64590;-85
2021/08/05 08:59:47;;;;;;;13.60;9.50;;;;;;;30.29;46.81;100323.52;128457;1084;63925;-86
2021/08/05 09:02:14;;;;;;;13.97;10.10;;;;;;;30.28;46.49;100315.55;128810;1084;64710;-86
2021/08/05 09:04:40;;;;;;;12.63;9.53;;;;;;;30.29;46.81;100317.22;128819;1081;64581;-86
2021/08/05 09:07:06;;;;;;;11.50;9.67;;;;;;;30.25;46.25;100309.42;128472;1084;64171;-86
2021/08/05 09:09:32;;;;;;;17.50;10.73;;;;;;;30.25;46.01;100297.70;128834;1084;64160;-85
2021/08/05 09:11:58;;;;;;;16.63;10.60;;;;;;;30.25;46.16;100282.20;128479;1084;64230;-84
2021/08/05 09:14:45;;;;;;;15.00;10.30;;;;;;;30.26;46.31;100286.62;128417;1084;64297;-85
2021/08/05 09:17:28;;;;;;;12.63;10.00;;;;;;;30.28;46.14;100283.70;128497;1084;64131;-85
2021/08/05 09:19:59;;;;;;;13.90;10.10;;;;;;;30.26;45.96;100283.90;128509;1084;64125;-84
2021/08/05 09:22:39;;;;;;;13.37;10.37;;;;;;;30.23;45.99;100278.83;128818;1083;64134;-83
2021/08/05 09:25:21;;;;;;;15.03;9.50;;;;;;;30.22;46.12;100266.23;128393;1084;64124;-84
2021/08/05 09:27:48;;;;;;;12.53;10.03;;;;;;;30.21;46.14;100267.27;128391;1084;64195;-84
2021/08/05 09:30:33;;;;;;;15.93;10.13;;;;;;;30.20;45.80;100271.00;128810;1084;64102;-84
2021/08/05 09:33:04;;;;;;;11.47;9.67;;;;;;;30.21;45.82;100260.98;128812;1082;64182;-84
2021/08/05 09:35:30;;;;;;;13.23;9.93;;;;;;;30.23;46.08;100253.46;128363;1083;64115;-85
2021/08/05 09:38:14;;;;;;;11.57;9.23;;;;;;;30.26;46.23;100258.53;128917;1084;64136;-86
2021/08/05 09:40:40;;;;;;;11.57;9.20;;;;;;;30.28;46.32;100252.92;128915;1082;63945;-85
2021/08/05 09:43:08;;;;;;;10.13;9.07;;;;;;;30.30;45.81;100254.44;128507;1083;64261;-85
2021/08/05 09:45:35;;;;;;;11.50;9.40;;;;;;;30.31;46.00;100247.94;128486;1084;64251;-85
2021/08/05 09:48:01;;;;;;;11.90;9.40;;;;;;;30.33;45.93;100242.30;128457;1084;64222;-85
2021/08/05 09:50:27;;;;;;;12.80;9.40;;;;;;;30.35;46.28;100237.53;128473;1084;64150;-85
2021/08/05 09:53:07;;;;;;;13.83;9.30;;;;;;;30.36;45.89;100240.06;128444;1084;64278;-85
2021/08/05 09:55:35;;;;;;;11.53;8.97;;;;;;;30.37;46.28;100230.04;128487;1084;64249;-87
2021/08/05 09:58:02;;;;;;;10.15;8.53;;;;;;;30.38;46.33;100235.30;128476;1082;64128;-85
2021/08/05 10:00:43;;;;;;;10.40;8.83;;;;;;;30.40;45.91;100230.50;128379;1084;64163;-84
2021/08/05 10:03:10;;;;;;;10.40;8.50;;;;;;;30.40;45.95;100218.77;128468;1084;64188;-85
2021/08/05 10:05:36;;;;;;;14.77;9.20;;;;;;;30.41;45.95;100215.02;128895;1082;64141;-86
2021/08/05 10:08:03;;;;;;;9.70;8.70;;;;;;;30.40;45.94;100216.88;128469;1083;64139;-86
2021/08/05 10:10:51;;;;;;;10.77;8.90;;;;;;;30.42;45.85;100213.97;128487;1083;63958;-86
2021/08/05 10:13:30;;;;;;;;;;;;;;;30.41;46.03;100213.13;128511;1084;64147;-85
2021/08/05 10:15:56;;;;;;;10.37;8.50;;;;;;;30.41;46.29;100204.13;128500;1084;64202;-86
2021/08/05 10:18:33;;;;;;;12.57;9.13;;;;;;;30.41;45.87;100206.85;128509;1084;64229;-85
2021/08/05 10:21:01;;;;;;;9.60;8.50;;;;;;;30.41;46.26;100191.34;128881;1084;64211;-85
2021/08/05 10:23:29;;;;;;;11.63;8.73;;;;;;;30.42;46.08;100190.33;128464;1084;64147;-86
2021/08/05 10:25:58;;;;;;;11.75;8.30;;;;;;;30.43;45.64;100196.60;128471;1084;64131;-86
2021/08/05 10:28:25;;;;;;;11.05;8.78;;;;;;;30.43;46.03;100194.74;128905;1083;63939;-86
2021/08/05 10:30:55;;;;;;;9.43;8.30;;;;;;;30.44;45.69;100187.41;128476;1084;64098;-85
2021/08/05 10:33:21;;;;;;;11.93;8.43;;;;;;;30.45;45.88;100180.08;128508;1082;64099;-85
2021/08/05 10:35:53;;;;;;;8.93;8.03;;;;;;;30.44;45.80;100179.23;128578;1084;64066;-85
2021/08/05 10:38:22;;;;;;;12.43;7.60;;;;;;;30.46;45.19;100173.63;128585;1084;64368;-85
2021/08/05 10:40:50;;;;;;;17.27;7.40;;;;;;;30.48;44.76;100168.86;128932;1084;64128;-85
2021/08/05 10:43:17;;;;;;;11.15;7.35;;;;;;;30.50;43.93;100175.81;128476;1084;64198;-85
2021/08/05 10:45:43;;;;;;;10.90;7.60;;;;;;;30.51;43.36;100163.86;128485;1082;62183;-85
2021/08/05 10:48:10;;;;;;;12.00;7.83;;;;;;;30.51;44.08;100158.41;128494;1084;64138;-85
2021/08/05 10:50:43;;;;;;;13.80;7.47;;;;;;;30.52;43.59;100162.00;128493;1084;64151;-85
2021/08/05 10:53:15;;;;;;;14.50;7.70;;;;;;;30.53;43.00;100152.77;128485;1084;64127;-84
2021/08/05 10:55:42;;;;;;;12.67;7.83;;;;;;;30.55;42.87;100151.55;128468;1082;64130;-85
2021/08/05 10:58:15;;;;;;;16.40;7.90;;;;;;;30.56;42.18;100142.36;128453;1084;61710;-85
2021/08/05 11:01:02;;;;;;;13.47;7.63;;;;;;;30.57;42.04;100149.50;128879;1084;64342;-85
2021/08/05 11:03:47;;;;;;;13.70;7.40;;;;;;;30.57;41.75;100138.61;128912;1084;64671;-85
2021/08/05 11:06:22;;;;;;;11.67;7.90;;;;;;;30.58;41.86;100137.58;128922;1084;64848;-85
2021/08/05 11:08:51;;;;;;;13.23;7.90;;;;;;;30.56;41.98;100136.08;128877;1084;64170;-85
2021/08/05 11:11:30;;;;;;;18.67;8.63;;;;;;;30.63;41.68;100128.83;128517;1084;64138;-86
2021/08/05 11:13:59;;;;;;;15.47;8.57;;;;;;;30.67;40.99;100124.69;128461;1084;64375;-86
2021/08/05 11:16:53;;;;;;;15.50;8.17;;;;;;;30.73;41.02;100128.52;128495;1084;64243;-85
2021/08/05 11:19:21;;;;;;;15.77;8.10;;;;;;;30.74;40.26;100108.42;128867;1084;64102;-86
2021/08/05 11:21:47;;;;;;;10.40;7.93;;;;;;;30.74;40.18;100116.60;128896;1084;64175;-84